createdAt,value
2017-12-24T00:00:45.620Z,80.42
2017-12-24T00:01:45.358Z,80.42
2017-12-24T00:02:45.651Z,80.52
2017-12-24T00:03:45.662Z,80.61
2017-12-24T00:04:45.686Z,80.9
2017-12-24T00:05:45.701Z,80.29
2017-12-24T00:06:45.430Z,80.99
2017-12-24T00:07:45.717Z,80.8
2017-12-24T00:08:45.734Z,80.71
2017-12-24T00:09:45.473Z,80.9
2017-12-24T00:10:45.490Z,80.8
2017-12-24T00:11:45.518Z,80.9
2017-12-24T00:12:45.512Z,80.71
2017-12-24T00:13:45.805Z,80.99
2017-12-24T00:14:45.823Z,80.99
2017-12-24T00:15:45.830Z,80.8
2017-12-24T00:16:45.849Z,80.8
2017-12-24T00:17:45.860Z,80.71
2017-12-24T00:18:45.597Z,81.09
2017-12-24T00:19:45.614Z,81.18
2017-12-24T00:20:45.626Z,80.8
2017-12-24T00:21:45.918Z,80.8
2017-12-24T00:22:45.987Z,81.09
2017-12-24T00:23:45.950Z,80.61
2017-12-24T00:24:45.962Z,80.8
2017-12-24T00:25:45.977Z,80.8
2017-12-24T00:26:45.986Z,80.9
2017-12-24T00:27:45.775Z,80.71
2017-12-24T00:28:45.744Z,80.9
2017-12-24T00:29:46.028Z,80.71
2017-12-24T00:30:46.043Z,80.8
2017-12-24T00:31:45.780Z,80.71
2017-12-24T00:32:45.848Z,80.9
2017-12-24T00:33:46.086Z,80.99
2017-12-24T00:34:46.131Z,80.9
2017-12-24T00:35:46.114Z,80.99
2017-12-24T00:36:45.853Z,80.8
2017-12-24T00:37:46.174Z,80.9
2017-12-24T00:38:46.161Z,80.9
2017-12-24T00:39:46.171Z,80.71
2017-12-24T00:40:46.182Z,80.71
2017-12-24T00:41:45.921Z,80.52
2017-12-24T00:42:45.990Z,80.71
2017-12-24T00:43:46.226Z,80.71
2017-12-24T00:44:46.240Z,80.71
2017-12-24T00:45:45.978Z,80.8
2017-12-24T00:46:46.269Z,80.71
2017-12-24T00:47:46.287Z,80.61
2017-12-24T00:48:46.294Z,80.52
2017-12-24T00:49:46.308Z,80.52
2017-12-24T00:50:46.049Z,80.42
2017-12-24T00:51:46.394Z,80.71
2017-12-24T00:52:46.354Z,80.61
2017-12-24T00:53:46.092Z,81.09
2017-12-24T00:54:46.103Z,80.52
2017-12-24T00:55:46.394Z,80.71
2017-12-24T00:56:46.418Z,80.61
2017-12-24T00:57:46.477Z,80.61
2017-12-24T00:58:46.438Z,80.71
2017-12-24T00:59:46.450Z,80.61
2017-12-24T01:00:46.190Z,80.61
2017-12-24T01:01:46.207Z,80.33
2017-12-24T01:02:46.543Z,80.23
2017-12-24T01:03:46.508Z,80.33
2017-12-24T01:04:46.527Z,80.33
2017-12-24T01:05:46.539Z,80.33
2017-12-24T01:06:46.273Z,79.85
2017-12-24T01:07:46.290Z,79.75
2017-12-24T01:08:46.580Z,79.94
2017-12-24T01:09:46.592Z,79.75
2017-12-24T01:10:46.331Z,80.13
2017-12-24T01:11:46.352Z,80.33
2017-12-24T01:12:46.358Z,80.13
2017-12-24T01:13:46.650Z,80.33
2017-12-24T01:14:46.663Z,80.04
2017-12-24T01:15:46.690Z,79.94
2017-12-24T01:16:46.412Z,79.94
2017-12-24T01:17:46.760Z,80.13
2017-12-24T01:18:46.446Z,80.23
2017-12-24T01:19:46.457Z,80.13
2017-12-24T01:20:46.475Z,79.85
2017-12-24T01:21:46.768Z,80.33
2017-12-24T01:22:46.827Z,80.13
2017-12-24T01:23:46.801Z,80.13
2017-12-24T01:24:46.807Z,79.66
2017-12-24T01:25:46.819Z,79.75
2017-12-24T01:26:46.841Z,79.66
2017-12-24T01:27:46.904Z,80.04
2017-12-24T01:28:46.862Z,80.23
2017-12-24T01:29:46.880Z,79.75
2017-12-24T01:30:46.614Z,80.13
2017-12-24T01:31:46.902Z,80.23
2017-12-24T01:32:46.917Z,80.04
2017-12-24T01:33:46.933Z,80.23
2017-12-24T01:34:46.952Z,80.04
2017-12-24T01:35:46.960Z,79.85
2017-12-24T01:36:46.972Z,79.57
2017-12-24T01:37:47.045Z,79.75
2017-12-24T01:38:47.005Z,79.57
2017-12-24T01:39:47.020Z,79.85
2017-12-24T01:40:46.757Z,79.47
2017-12-24T01:41:46.769Z,79.75
2017-12-24T01:42:47.058Z,79.75
2017-12-24T01:43:47.074Z,79.28
2017-12-24T01:44:47.086Z,79.57
2017-12-24T01:45:47.101Z,79.47
2017-12-24T01:46:47.113Z,79.57
2017-12-24T01:47:47.189Z,79.66
2017-12-24T01:48:47.142Z,79.47
2017-12-24T01:49:47.159Z,79.28
2017-12-24T01:50:46.896Z,79.57
2017-12-24T01:51:47.187Z,79.09
2017-12-24T01:52:46.926Z,79.57
2017-12-24T01:53:46.948Z,79.47
2017-12-24T01:54:47.226Z,78.9
2017-12-24T01:55:47.244Z,79.28
2017-12-24T01:56:47.258Z,79.09
2017-12-24T01:57:47.329Z,78.99
2017-12-24T01:58:47.287Z,79.09
2017-12-24T01:59:47.302Z,78.99
2017-12-24T02:00:47.317Z,78.99
2017-12-24T02:01:47.330Z,78.9
2017-12-24T02:02:47.343Z,79.19
2017-12-24T02:03:47.361Z,79.38
2017-12-24T02:04:47.096Z,78.99
2017-12-24T02:05:47.386Z,78.8
2017-12-24T02:06:47.125Z,78.9
2017-12-24T02:07:47.139Z,79.09
2017-12-24T02:08:47.151Z,79.38
2017-12-24T02:09:47.444Z,79.38
2017-12-24T02:10:47.187Z,79.19
2017-12-24T02:11:47.473Z,78.99
2017-12-24T02:12:47.211Z,78.8
2017-12-24T02:13:47.500Z,79.09
2017-12-24T02:14:47.239Z,79.19
2017-12-24T02:15:47.526Z,78.9
2017-12-24T02:16:47.266Z,79.19
2017-12-24T02:17:47.557Z,79.19
2017-12-24T02:18:47.573Z,78.9
2017-12-24T02:19:47.584Z,78.99
2017-12-24T02:20:47.325Z,79.09
2017-12-24T02:21:47.349Z,79.19
2017-12-24T02:22:47.681Z,79.19
2017-12-24T02:23:47.657Z,79.28
2017-12-24T02:24:47.656Z,78.9
2017-12-24T02:25:47.670Z,78.9
2017-12-24T02:26:47.409Z,79.38
2017-12-24T02:27:47.703Z,78.9
2017-12-24T02:28:47.712Z,78.99
2017-12-24T02:29:47.776Z,78.9
2017-12-24T02:30:47.748Z,79.09
2017-12-24T02:31:47.481Z,79.75
2017-12-24T02:32:47.520Z,79.28
2017-12-24T02:33:47.505Z,79.57
2017-12-24T02:34:47.803Z,79.57
2017-12-24T02:35:47.813Z,79.75
2017-12-24T02:36:47.833Z,79.57
2017-12-24T02:37:47.842Z,79.47
2017-12-24T02:38:47.851Z,79.47
2017-12-24T02:39:47.871Z,79.85
2017-12-24T02:40:47.605Z,79.85
2017-12-24T02:41:47.900Z,79.85
2017-12-24T02:42:47.914Z,79.38
2017-12-24T02:43:47.937Z,79.47
2017-12-24T02:44:47.940Z,79.57
2017-12-24T02:45:47.957Z,79.75
2017-12-24T02:46:47.964Z,79.75
2017-12-24T02:47:47.999Z,79.47
2017-12-24T02:48:48.000Z,79.47
2017-12-24T02:49:47.734Z,79.75
2017-12-24T02:50:47.747Z,79.66
2017-12-24T02:51:48.039Z,79.85
2017-12-24T02:52:48.053Z,79.57
2017-12-24T02:53:48.069Z,79.75
2017-12-24T02:54:48.085Z,79.75
2017-12-24T02:55:48.096Z,79.66
2017-12-24T02:56:47.830Z,79.75
2017-12-24T02:57:48.128Z,79.52
2017-12-24T02:58:48.163Z,79.47
2017-12-24T02:59:47.874Z,79.72
2017-12-24T03:00:48.164Z,79.24
2017-12-24T03:01:48.182Z,79.62
2017-12-24T03:02:48.190Z,79.57
2017-12-24T03:03:48.207Z,79.57
2017-12-24T03:04:48.222Z,79.57
2017-12-24T03:05:48.233Z,79.57
2017-12-24T03:06:48.250Z,79.43
2017-12-24T03:07:48.261Z,79.57
2017-12-24T03:08:48.000Z,79.47
2017-12-24T03:09:48.290Z,79.14
2017-12-24T03:10:48.306Z,79.72
2017-12-24T03:11:48.320Z,79.72
2017-12-24T03:12:48.332Z,79.75
2017-12-24T03:13:48.345Z,79.81
2017-12-24T03:14:48.362Z,79.72
2017-12-24T03:15:48.421Z,79.28
2017-12-24T03:16:48.391Z,79.62
2017-12-24T03:17:48.126Z,79.72
2017-12-24T03:18:48.190Z,79.14
2017-12-24T03:19:48.154Z,79.72
2017-12-24T03:20:48.169Z,79.72
2017-12-24T03:21:48.461Z,79.43
2017-12-24T03:22:48.474Z,79.43
2017-12-24T03:23:48.260Z,79.72
2017-12-24T03:24:48.499Z,79.52
2017-12-24T03:25:48.513Z,79.72
2017-12-24T03:26:48.536Z,79.81
2017-12-24T03:27:48.542Z,79.81
2017-12-24T03:28:48.608Z,79.72
2017-12-24T03:29:48.572Z,79.72
2017-12-24T03:30:48.590Z,79.81
2017-12-24T03:31:48.321Z,79.81
2017-12-24T03:32:48.337Z,79.43
2017-12-24T03:33:48.630Z,79.43
2017-12-24T03:34:48.647Z,79.62
2017-12-24T03:35:48.714Z,79.33
2017-12-24T03:36:48.397Z,79.52
2017-12-24T03:37:48.408Z,79.81
2017-12-24T03:38:48.421Z,79.72
2017-12-24T03:39:48.716Z,79.72
2017-12-24T03:40:48.448Z,79.72
2017-12-24T03:41:48.463Z,79.62
2017-12-24T03:42:48.482Z,79.72
2017-12-24T03:43:48.491Z,79.81
2017-12-24T03:44:48.783Z,79.72
2017-12-24T03:45:48.519Z,79.81
2017-12-24T03:46:48.532Z,79.43
2017-12-24T03:47:48.547Z,79.43
2017-12-24T03:48:48.840Z,79.72
2017-12-24T03:49:48.851Z,79.43
2017-12-24T03:50:48.871Z,79.33
2017-12-24T03:51:48.879Z,79.52
2017-12-24T03:52:48.618Z,79.62
2017-12-24T03:53:48.956Z,79.72
2017-12-24T03:54:48.922Z,79.62
2017-12-24T03:55:48.939Z,79.72
2017-12-24T03:56:48.960Z,79.62
2017-12-24T03:57:48.965Z,79.72
2017-12-24T03:58:48.699Z,79.72
2017-12-24T03:59:48.992Z,79.62
2017-12-24T04:00:49.008Z,80
2017-12-24T04:01:49.019Z,79.62
2017-12-24T04:02:49.030Z,79.43
2017-12-24T04:03:49.159Z,79.72
2017-12-24T04:04:49.063Z,79.33
2017-12-24T04:05:49.077Z,79.72
2017-12-24T04:06:48.814Z,79.52
2017-12-24T04:07:48.830Z,79.33
2017-12-24T04:08:48.852Z,79.62
2017-12-24T04:09:49.190Z,79.72
2017-12-24T04:10:49.144Z,79.72
2017-12-24T04:11:49.160Z,79.72
2017-12-24T04:12:49.171Z,79.81
2017-12-24T04:13:48.988Z,79.72
2017-12-24T04:14:48.925Z,79.62
2017-12-24T04:15:49.218Z,79.62
2017-12-24T04:16:49.243Z,79.81
2017-12-24T04:17:49.240Z,79.33
2017-12-24T04:18:49.254Z,79.62
2017-12-24T04:19:49.277Z,79.52
2017-12-24T04:20:49.284Z,79.72
2017-12-24T04:21:49.298Z,79.72
2017-12-24T04:22:49.317Z,79.52
2017-12-24T04:23:49.100Z,79.62
2017-12-24T04:24:49.065Z,79.52
2017-12-24T04:25:49.353Z,79.52
2017-12-24T04:26:49.093Z,79.72
2017-12-24T04:27:49.384Z,79.52
2017-12-24T04:28:49.396Z,79.52
2017-12-24T04:29:49.407Z,79.43
2017-12-24T04:30:49.421Z,79.52
2017-12-24T04:31:49.437Z,79.52
2017-12-24T04:32:49.452Z,79.43
2017-12-24T04:33:49.520Z,79.43
2017-12-24T04:34:49.485Z,79.81
2017-12-24T04:35:49.493Z,79.43
2017-12-24T04:36:49.508Z,79.52
2017-12-24T04:37:49.519Z,79.72
2017-12-24T04:38:49.570Z,79.72
2017-12-24T04:39:49.273Z,79.62
2017-12-24T04:40:49.565Z,79.72
2017-12-24T04:41:49.300Z,79.91
2017-12-24T04:42:49.595Z,79.43
2017-12-24T04:43:49.329Z,79.62
2017-12-24T04:44:49.618Z,79.62
2017-12-24T04:45:49.631Z,79.62
2017-12-24T04:46:49.646Z,79.72
2017-12-24T04:47:49.385Z,79.62
2017-12-24T04:48:49.494Z,79.91
2017-12-24T04:49:49.694Z,79.91
2017-12-24T04:50:49.706Z,79.72
2017-12-24T04:51:49.446Z,79.81
2017-12-24T04:52:49.729Z,79.72
2017-12-24T04:53:49.743Z,79.91
2017-12-24T04:54:49.757Z,79.72
2017-12-24T04:55:49.495Z,79.72
2017-12-24T04:56:49.784Z,79.81
2017-12-24T04:57:49.523Z,79.72
2017-12-24T04:58:49.552Z,79.91
2017-12-24T04:59:49.826Z,79.62
2017-12-24T05:00:49.839Z,79.72
2017-12-24T05:01:49.858Z,79.62
2017-12-24T05:02:49.869Z,79.72
2017-12-24T05:03:49.948Z,79.62
2017-12-24T05:04:49.897Z,79.91
2017-12-24T05:05:49.909Z,79.81
2017-12-24T05:06:49.655Z,79.43
2017-12-24T05:07:49.937Z,79.62
2017-12-24T05:08:50.005Z,79.62
2017-12-24T05:09:49.967Z,79.62
2017-12-24T05:10:49.991Z,79.72
2017-12-24T05:11:49.997Z,79.62
2017-12-24T05:12:50.011Z,79.81
2017-12-24T05:13:50.070Z,79.72
2017-12-24T05:14:49.760Z,79.72
2017-12-24T05:15:50.050Z,79.81
2017-12-24T05:16:50.065Z,79.81
2017-12-24T05:17:50.078Z,79.43
2017-12-24T05:18:50.142Z,79.72
2017-12-24T05:19:49.829Z,79.52
2017-12-24T05:20:49.843Z,79.72
2017-12-24T05:21:50.135Z,79.62
2017-12-24T05:22:50.148Z,79.43
2017-12-24T05:23:50.263Z,79.62
2017-12-24T05:24:49.900Z,79.72
2017-12-24T05:25:49.911Z,79.81
2017-12-24T05:26:50.202Z,79.43
2017-12-24T05:27:49.940Z,79.72
2017-12-24T05:28:50.230Z,79.62
2017-12-24T05:29:49.968Z,80.19
2017-12-24T05:30:49.984Z,80.19
2017-12-24T05:31:50.284Z,79.62
2017-12-24T05:32:50.287Z,80.19
2017-12-24T05:33:50.298Z,80.19
2017-12-24T05:34:50.315Z,79.81
2017-12-24T05:35:50.326Z,80.1
2017-12-24T05:36:50.063Z,79.81
2017-12-24T05:37:50.354Z,79.91
2017-12-24T05:38:50.095Z,80.1
2017-12-24T05:39:50.402Z,80.29
2017-12-24T05:40:50.395Z,80
2017-12-24T05:41:50.408Z,80
2017-12-24T05:42:50.422Z,80
2017-12-24T05:43:50.437Z,80.1
2017-12-24T05:44:50.451Z,80.1
2017-12-24T05:45:50.467Z,80.1
2017-12-24T05:46:50.482Z,80.19
2017-12-24T05:47:50.493Z,79.91
2017-12-24T05:48:50.514Z,80
2017-12-24T05:49:50.247Z,80.1
2017-12-24T05:50:50.533Z,80.1
2017-12-24T05:51:50.274Z,80.1
2017-12-24T05:52:50.561Z,80.1
2017-12-24T05:53:50.300Z,79.91
2017-12-24T05:54:50.314Z,80
2017-12-24T05:55:50.600Z,80.1
2017-12-24T05:56:50.616Z,79.81
2017-12-24T05:57:50.357Z,79.91
2017-12-24T05:58:50.665Z,80.29
2017-12-24T05:59:50.660Z,80.1
2017-12-24T06:00:50.674Z,80.1
2017-12-24T06:01:50.410Z,79.91
2017-12-24T06:02:50.698Z,80.1
2017-12-24T06:03:50.437Z,80.1
2017-12-24T06:04:50.793Z,80.1
2017-12-24T06:05:50.742Z,80
2017-12-24T06:06:50.754Z,80
2017-12-24T06:07:50.770Z,80
2017-12-24T06:08:50.508Z,79.91
2017-12-24T06:09:50.797Z,79.91
2017-12-24T06:10:50.848Z,79.91
2017-12-24T06:11:50.839Z,80.29
2017-12-24T06:12:50.838Z,79.72
2017-12-24T06:13:50.579Z,79.62
2017-12-24T06:14:50.867Z,79.72
2017-12-24T06:15:50.606Z,79.91
2017-12-24T06:16:50.896Z,79.81
2017-12-24T06:17:50.914Z,80
2017-12-24T06:18:50.923Z,79.81
2017-12-24T06:19:50.937Z,79.91
2017-12-24T06:20:50.953Z,79.81
2017-12-24T06:21:50.966Z,80.1
2017-12-24T06:22:50.980Z,80.19
2017-12-24T06:23:50.990Z,79.62
2017-12-24T06:24:51.004Z,80.47
2017-12-24T06:25:51.019Z,80
2017-12-24T06:26:51.033Z,80
2017-12-24T06:27:50.772Z,79.81
2017-12-24T06:28:51.058Z,80
2017-12-24T06:29:51.076Z,80
2017-12-24T06:30:51.085Z,80.19
2017-12-24T06:31:50.826Z,80.19
2017-12-24T06:32:51.115Z,79.91
2017-12-24T06:33:50.861Z,80.19
2017-12-24T06:34:51.143Z,80.38
2017-12-24T06:35:51.227Z,80.57
2017-12-24T06:36:51.170Z,80.66
2017-12-24T06:37:51.186Z,80.57
2017-12-24T06:38:50.923Z,80.66
2017-12-24T06:39:51.220Z,80.66
2017-12-24T06:40:51.227Z,80.57
2017-12-24T06:41:50.964Z,80.38
2017-12-24T06:42:50.980Z,80.47
2017-12-24T06:43:51.270Z,80.47
2017-12-24T06:44:51.280Z,80.38
2017-12-24T06:45:51.091Z,80.47
2017-12-24T06:46:51.311Z,80.47
2017-12-24T06:47:51.324Z,80.38
2017-12-24T06:48:51.340Z,80.38
2017-12-24T06:49:51.352Z,80.57
2017-12-24T06:50:51.369Z,80.66
2017-12-24T06:51:51.378Z,80.47
2017-12-24T06:52:51.118Z,80.47
2017-12-24T06:53:51.411Z,80.76
2017-12-24T06:54:51.152Z,80.38
2017-12-24T06:55:51.158Z,80.66
2017-12-24T06:56:51.181Z,80.66
2017-12-24T06:57:51.463Z,80.38
2017-12-24T06:58:51.202Z,80.57
2017-12-24T06:59:51.490Z,80.38
2017-12-24T07:00:51.507Z,80.47
2017-12-24T07:01:51.241Z,80.38
2017-12-24T07:02:51.533Z,80.57
2017-12-24T07:03:51.289Z,80.66
2017-12-24T07:04:51.559Z,80.38
2017-12-24T07:05:51.297Z,80.47
2017-12-24T07:06:51.606Z,80.57
2017-12-24T07:07:51.324Z,80.66
2017-12-24T07:08:51.616Z,80.38
2017-12-24T07:09:51.629Z,80.57
2017-12-24T07:10:51.654Z,80.57
2017-12-24T07:11:51.380Z,80.47
2017-12-24T07:12:51.393Z,80.47
2017-12-24T07:13:51.409Z,80.38
2017-12-24T07:14:51.421Z,80.42
2017-12-24T07:15:51.724Z,80.42
2017-12-24T07:16:51.727Z,80.42
2017-12-24T07:17:51.743Z,80.42
2017-12-24T07:18:51.761Z,80.38
2017-12-24T07:19:51.768Z,80.42
2017-12-24T07:20:51.782Z,80.52
2017-12-24T07:21:51.794Z,80.8
2017-12-24T07:22:51.810Z,80.61
2017-12-24T07:23:51.547Z,80.61
2017-12-24T07:24:51.903Z,80.42
2017-12-24T07:25:51.849Z,80.42
2017-12-24T07:26:51.863Z,80.42
2017-12-24T07:27:51.892Z,80.42
2017-12-24T07:28:51.898Z,80.71
2017-12-24T07:29:51.907Z,80.71
2017-12-24T07:30:51.646Z,80.71
2017-12-24T07:31:51.938Z,80.71
2017-12-24T07:32:51.949Z,80.71
2017-12-24T07:33:51.685Z,80.61
2017-12-24T07:34:52.026Z,80.52
2017-12-24T07:35:51.992Z,80.71
2017-12-24T07:36:51.726Z,80.52
2017-12-24T07:37:51.747Z,80.61
2017-12-24T07:38:51.754Z,80.42
2017-12-24T07:39:51.769Z,80.33
2017-12-24T07:40:52.063Z,80.71
2017-12-24T07:41:52.071Z,80.33
2017-12-24T07:42:52.090Z,80.33
2017-12-24T07:43:52.103Z,80.71
2017-12-24T07:44:52.113Z,80.33
2017-12-24T07:45:52.143Z,80.71
2017-12-24T07:46:52.144Z,80.52
2017-12-24T07:47:52.158Z,79.94
2017-12-24T07:48:52.170Z,79.94
2017-12-24T07:49:52.235Z,80.13
2017-12-24T07:50:52.264Z,80.04
2017-12-24T07:51:52.212Z,79.85
2017-12-24T07:52:51.952Z,80.23
2017-12-24T07:53:52.239Z,80.13
2017-12-24T07:54:52.255Z,79.85
2017-12-24T07:55:52.278Z,79.94
2017-12-24T07:56:52.286Z,79.85
2017-12-24T07:57:52.297Z,80.33
2017-12-24T07:58:52.311Z,79.94
2017-12-24T07:59:52.324Z,79.94
2017-12-24T08:00:52.338Z,79.94
2017-12-24T08:01:52.080Z,79.94
2017-12-24T08:02:52.373Z,79.94
2017-12-24T08:03:52.379Z,79.94
2017-12-24T08:04:52.121Z,80.42
2017-12-24T08:05:52.407Z,79.94
2017-12-24T08:06:52.149Z,80.23
2017-12-24T08:07:52.163Z,80.23
2017-12-24T08:08:52.460Z,80.13
2017-12-24T08:09:52.463Z,80.13
2017-12-24T08:10:52.479Z,80.13
2017-12-24T08:11:52.499Z,80.13
2017-12-24T08:12:52.516Z,79.94
2017-12-24T08:13:52.526Z,80.04
2017-12-24T08:14:52.534Z,79.94
2017-12-24T08:15:52.550Z,80.13
2017-12-24T08:16:52.287Z,80.13
2017-12-24T08:17:52.302Z,79.94
2017-12-24T08:18:52.318Z,80.13
2017-12-24T08:19:52.332Z,80.04
2017-12-24T08:20:52.620Z,80.13
2017-12-24T08:21:52.659Z,79.94
2017-12-24T08:22:52.374Z,80.23
2017-12-24T08:23:52.663Z,80.13
2017-12-24T08:24:52.404Z,80.42
2017-12-24T08:25:52.695Z,79.85
2017-12-24T08:26:52.706Z,80.33
2017-12-24T08:27:52.726Z,80.13
2017-12-24T08:28:52.734Z,80.33
2017-12-24T08:29:52.472Z,80.33
2017-12-24T08:30:52.767Z,80.13
2017-12-24T08:31:52.501Z,80.04
2017-12-24T08:32:52.789Z,80.33
2017-12-24T08:33:52.802Z,79.85
2017-12-24T08:34:52.820Z,80.23
2017-12-24T08:35:52.561Z,79.85
2017-12-24T08:36:52.849Z,79.75
2017-12-24T08:37:52.861Z,80.04
2017-12-24T08:38:52.876Z,80.13
2017-12-24T08:39:52.897Z,80.23
2017-12-24T08:40:52.903Z,80.23
2017-12-24T08:41:52.919Z,80.23
2017-12-24T08:42:52.936Z,80.04
2017-12-24T08:43:52.960Z,79.66
2017-12-24T08:44:52.965Z,79.57
2017-12-24T08:45:53.126Z,79.57
2017-12-24T08:46:52.988Z,79.57
2017-12-24T08:47:53.004Z,80.04
2017-12-24T08:48:53.019Z,79.57
2017-12-24T08:49:52.761Z,79.57
2017-12-24T08:50:52.820Z,79.57
2017-12-24T08:51:52.785Z,79.75
2017-12-24T08:52:53.073Z,79.66
2017-12-24T08:53:53.086Z,79.57
2017-12-24T08:54:53.104Z,79.75
2017-12-24T08:55:53.170Z,79.38
2017-12-24T08:56:52.856Z,79.38
2017-12-24T08:57:53.150Z,79.38
2017-12-24T08:58:52.884Z,79.57
2017-12-24T08:59:53.184Z,79.47
2017-12-24T09:00:53.238Z,79.75
2017-12-24T09:01:53.203Z,79.57
2017-12-24T09:02:52.941Z,79.47
2017-12-24T09:03:53.230Z,79.7
2017-12-24T09:04:53.246Z,79.66
2017-12-24T09:05:53.034Z,79.66
2017-12-24T09:06:53.002Z,79.6
2017-12-24T09:07:53.014Z,79.57
2017-12-24T09:08:53.323Z,79.8
2017-12-24T09:09:53.315Z,79.89
2017-12-24T09:10:53.337Z,79.75
2017-12-24T09:11:53.353Z,79.57
2017-12-24T09:12:53.358Z,79.57
2017-12-24T09:13:53.387Z,79.28
2017-12-24T09:14:53.120Z,79.28
2017-12-24T09:15:53.452Z,79.6
2017-12-24T09:16:53.419Z,79.38
2017-12-24T09:17:53.431Z,79.41
2017-12-24T09:18:53.670Z,79.09
2017-12-24T09:19:53.185Z,79.6
2017-12-24T09:20:53.199Z,79.19
2017-12-24T09:21:53.491Z,79.6
2017-12-24T09:22:53.514Z,79.8
2017-12-24T09:23:53.518Z,78.85
2017-12-24T09:24:53.270Z,79.51
2017-12-24T09:25:53.595Z,79.13
2017-12-24T09:26:53.573Z,79.32
2017-12-24T09:27:53.578Z,79.6
2017-12-24T09:28:53.317Z,79.41
2017-12-24T09:29:53.613Z,79.13
2017-12-24T09:30:53.393Z,79.03
2017-12-24T09:31:53.636Z,79.22
2017-12-24T09:32:53.652Z,79.03
2017-12-24T09:33:53.665Z,78.94
2017-12-24T09:34:53.676Z,78.9
2017-12-24T09:35:53.742Z,79.03
2017-12-24T09:36:53.704Z,79.03
2017-12-24T09:37:53.720Z,78.75
2017-12-24T09:38:53.732Z,78.85
2017-12-24T09:39:53.749Z,79.32
2017-12-24T09:40:53.537Z,79.6
2017-12-24T09:41:53.778Z,79.22
2017-12-24T09:42:53.517Z,79.13
2017-12-24T09:43:53.808Z,79.41
2017-12-24T09:44:53.820Z,79.03
2017-12-24T09:45:53.833Z,79.03
2017-12-24T09:46:53.574Z,79.13
2017-12-24T09:47:53.864Z,78.94
2017-12-24T09:48:53.876Z,79.03
2017-12-24T09:49:53.638Z,79.22
2017-12-24T09:50:53.708Z,78.94
2017-12-24T09:51:53.922Z,79.22
2017-12-24T09:52:53.938Z,79.22
2017-12-24T09:53:53.952Z,79.22
2017-12-24T09:54:53.973Z,79.22
2017-12-24T09:55:54.037Z,79.41
2017-12-24T09:56:54.070Z,79.13
2017-12-24T09:57:54.010Z,79.32
2017-12-24T09:58:54.029Z,79.32
2017-12-24T09:59:54.041Z,79.13
2017-12-24T10:00:53.813Z,79.13
2017-12-24T10:01:53.792Z,79.03
2017-12-24T10:02:53.806Z,79.41
2017-12-24T10:03:54.098Z,78.75
2017-12-24T10:04:53.840Z,78.85
2017-12-24T10:05:54.125Z,78.56
2017-12-24T10:06:53.865Z,79.03
2017-12-24T10:07:54.164Z,78.75
2017-12-24T10:08:54.171Z,78.56
2017-12-24T10:09:54.184Z,78.37
2017-12-24T10:10:53.974Z,78.46
2017-12-24T10:11:53.942Z,78.75
2017-12-24T10:12:54.231Z,78.65
2017-12-24T10:13:54.246Z,78.85
2017-12-24T10:14:54.261Z,78.46
2017-12-24T10:15:54.098Z,79.03
2017-12-24T10:16:54.292Z,78.17
2017-12-24T10:17:54.306Z,78.46
2017-12-24T10:18:54.040Z,78.17
2017-12-24T10:19:54.334Z,78.37
2017-12-24T10:20:54.398Z,78.75
2017-12-24T10:21:54.084Z,78.75
2017-12-24T10:22:54.375Z,78.75
2017-12-24T10:23:54.411Z,78.65
2017-12-24T10:24:54.200Z,78.37
2017-12-24T10:25:54.483Z,78.31
2017-12-24T10:26:54.438Z,78.17
2017-12-24T10:27:54.173Z,78.31
2017-12-24T10:28:54.466Z,78.27
2017-12-24T10:29:54.205Z,78.37
2017-12-24T10:30:54.495Z,78.41
2017-12-24T10:31:54.511Z,78.37
2017-12-24T10:32:54.532Z,78.41
2017-12-24T10:33:54.539Z,78.08
2017-12-24T10:34:54.552Z,78.41
2017-12-24T10:35:54.566Z,78.12
2017-12-24T10:36:54.582Z,78.12
2017-12-24T10:37:54.597Z,77.93
2017-12-24T10:38:54.612Z,77.93
2017-12-24T10:39:54.349Z,78.12
2017-12-24T10:40:54.411Z,77.93
2017-12-24T10:41:54.659Z,77.83
2017-12-24T10:42:54.677Z,78.22
2017-12-24T10:43:54.440Z,77.83
2017-12-24T10:44:54.707Z,77.64
2017-12-24T10:45:54.487Z,78.12
2017-12-24T10:46:54.730Z,78.03
2017-12-24T10:47:54.752Z,78.22
2017-12-24T10:48:54.758Z,78.22
2017-12-24T10:49:54.504Z,78.03
2017-12-24T10:50:54.570Z,78.22
2017-12-24T10:51:54.528Z,78.22
2017-12-24T10:52:54.600Z,78.12
2017-12-24T10:53:54.835Z,78.12
2017-12-24T10:54:54.848Z,77.93
2017-12-24T10:55:54.929Z,78.31
2017-12-24T10:56:54.879Z,77.45
2017-12-24T10:57:54.893Z,77.83
2017-12-24T10:58:54.908Z,77.36
2017-12-24T10:59:54.924Z,77.55
2017-12-24T11:00:54.990Z,77.07
2017-12-24T11:01:54.995Z,77.64
2017-12-24T11:02:54.970Z,77.83
2017-12-24T11:03:54.988Z,77.74
2017-12-24T11:04:55.003Z,77.83
2017-12-24T11:05:55.064Z,77.26
2017-12-24T11:06:55.029Z,77.17
2017-12-24T11:07:54.769Z,77.83
2017-12-24T11:08:55.120Z,77.74
2017-12-24T11:09:55.079Z,77.93
2017-12-24T11:10:54.813Z,77.74
2017-12-24T11:11:55.115Z,77.36
2017-12-24T11:12:55.125Z,77.93
2017-12-24T11:13:55.131Z,77.26
2017-12-24T11:14:55.159Z,77.64
2017-12-24T11:15:54.895Z,77.74
2017-12-24T11:16:55.177Z,77.55
2017-12-24T11:17:54.915Z,77.55
2017-12-24T11:18:55.213Z,77.64
2017-12-24T11:19:55.224Z,77.64
2017-12-24T11:20:54.962Z,77.55
2017-12-24T11:21:55.252Z,77.45
2017-12-24T11:22:55.265Z,77.45
2017-12-24T11:23:55.005Z,77.36
2017-12-24T11:24:55.306Z,77.36
2017-12-24T11:25:55.317Z,77.17
2017-12-24T11:26:55.326Z,77.26
2017-12-24T11:27:55.342Z,77.55
2017-12-24T11:28:55.084Z,77.64
2017-12-24T11:29:55.377Z,77.45
2017-12-24T11:30:55.113Z,77.36
2017-12-24T11:31:55.402Z,77.26
2017-12-24T11:32:55.417Z,77.26
2017-12-24T11:33:55.156Z,77.45
2017-12-24T11:34:55.457Z,77.36
2017-12-24T11:35:55.186Z,77.74
2017-12-24T11:36:55.477Z,77.26
2017-12-24T11:37:55.492Z,77.74
2017-12-24T11:38:55.508Z,77.17
2017-12-24T11:39:55.526Z,77.17
2017-12-24T11:40:55.537Z,77.83
2017-12-24T11:41:55.276Z,77.26
2017-12-24T11:42:55.568Z,77.93
2017-12-24T11:43:55.585Z,77.74
2017-12-24T11:44:55.596Z,77.36
2017-12-24T11:45:55.611Z,77.83
2017-12-24T11:46:55.625Z,77.36
2017-12-24T11:47:55.645Z,76.88
2017-12-24T11:48:55.382Z,76.98
2017-12-24T11:49:55.674Z,77.07
2017-12-24T11:50:55.701Z,77.07
2017-12-24T11:51:55.736Z,76.98
2017-12-24T11:52:55.716Z,77.26
2017-12-24T11:53:55.732Z,77.17
2017-12-24T11:54:55.747Z,77.07
2017-12-24T11:55:55.767Z,77.07
2017-12-24T11:56:55.779Z,77.17
2017-12-24T11:57:55.516Z,77.07
2017-12-24T11:58:55.542Z,76.98
2017-12-24T11:59:55.823Z,77.26
2017-12-24T12:00:55.561Z,77.07
2017-12-24T12:01:55.855Z,76.98
2017-12-24T12:02:55.869Z,76.98
2017-12-24T12:03:55.885Z,77.17
2017-12-24T12:04:55.909Z,76.98
2017-12-24T12:05:55.641Z,77.07
2017-12-24T12:06:55.930Z,77.17
2017-12-24T12:07:55.667Z,77.07
2017-12-24T12:08:55.959Z,77.26
2017-12-24T12:09:55.978Z,77.17
2017-12-24T12:10:55.992Z,77.07
2017-12-24T12:11:56.003Z,76.98
2017-12-24T12:12:56.020Z,77.07
2017-12-24T12:13:55.758Z,77.07
2017-12-24T12:14:56.051Z,77.26
2017-12-24T12:15:56.064Z,77.07
2017-12-24T12:16:56.079Z,77.26
2017-12-24T12:17:56.097Z,76.98
2017-12-24T12:18:55.858Z,77.26
2017-12-24T12:19:56.122Z,77.36
2017-12-24T12:20:56.140Z,77.07
2017-12-24T12:21:55.880Z,77.26
2017-12-24T12:22:56.170Z,77.45
2017-12-24T12:23:55.910Z,76.98
2017-12-24T12:24:56.203Z,77.07
2017-12-24T12:25:56.214Z,77.17
2017-12-24T12:26:56.228Z,76.79
2017-12-24T12:27:56.243Z,76.98
2017-12-24T12:28:56.261Z,77.17
2017-12-24T12:29:56.006Z,77.17
2017-12-24T12:30:56.307Z,76.98
2017-12-24T12:31:56.304Z,77.07
2017-12-24T12:32:56.319Z,77.07
2017-12-24T12:33:56.407Z,76.98
2017-12-24T12:34:56.412Z,77.07
2017-12-24T12:35:56.367Z,77.17
2017-12-24T12:36:56.380Z,77.26
2017-12-24T12:37:56.394Z,77.26
2017-12-24T12:38:56.134Z,76.98
2017-12-24T12:39:56.149Z,76.79
2017-12-24T12:40:56.446Z,77.26
2017-12-24T12:41:56.456Z,76.88
2017-12-24T12:42:56.468Z,76.88
2017-12-24T12:43:56.209Z,77.26
2017-12-24T12:44:56.506Z,77.17
2017-12-24T12:45:56.515Z,77.26
2017-12-24T12:46:56.257Z,77.17
2017-12-24T12:47:56.544Z,77.45
2017-12-24T12:48:56.559Z,77.26
2017-12-24T12:49:56.577Z,77.26
2017-12-24T12:50:56.314Z,77.07
2017-12-24T12:51:56.610Z,76.98
2017-12-24T12:52:56.345Z,77.07
2017-12-24T12:53:56.647Z,76.88
2017-12-24T12:54:56.650Z,76.98
2017-12-24T12:55:56.665Z,76.98